Time;durP1;ratioP1;P1;durP2;ratioP2;P2;SDS_P1;SDS_P2;PMS_P1;PMS_P2;Temp;Humidity;BMP_temperature;BMP_pressure;BME280_temperature;BME280_humidity;BME280_pressure;Samples;Min_cycle;Max_cycle;Signal;HPM_P1;HPM_P2
2023/07/09 00:00:52;;;;;;;12.57;8.82;;;25.40;65.80;;;;;;5047842;28;20334;-64
2023/07/09 00:03:19;;;;;;;12.70;9.63;;;25.40;65.80;;;;;;5047266;28;20101;-64
2023/07/09 00:05:48;;;;;;;13.02;9.02;;;25.30;65.80;;;;;;5052421;28;20041;-64
2023/07/09 00:08:25;;;;;;;13.73;9.18;;;25.40;66.10;;;;;;5072736;28;20033;-64
2023/07/09 00:10:50;;;;;;;14.50;9.15;;;25.30;66.10;;;;;;5051663;28;20033;-64
2023/07/09 00:13:16;;;;;;;12.20;8.90;;;25.30;66.10;;;;;;5052194;28;20120;-64
2023/07/09 00:15:42;;;;;;;12.63;8.38;;;25.30;66.10;;;;;;5070113;28;20025;-64
2023/07/09 00:18:09;;;;;;;13.40;8.73;;;25.30;66.10;;;;;;5053525;28;20441;-64
2023/07/09 00:20:35;;;;;;;14.32;8.07;;;25.30;66.00;;;;;;5071343;28;20349;-64
2023/07/09 00:23:04;;;;;;;11.40;8.35;;;25.30;66.10;;;;;;5070824;28;20038;-64
2023/07/09 00:25:30;;;;;;;14.98;7.82;;;25.30;66.10;;;;;;5069649;28;20425;-64
2023/07/09 00:27:56;;;;;;;12.30;7.93;;;25.30;66.10;;;;;;5051568;28;20044;-64
2023/07/09 00:30:23;;;;;;;15.25;9.20;;;25.20;66.70;;;;;;5052614;28;20175;-64
2023/07/09 00:32:51;;;;;;;15.15;8.10;;;25.20;66.00;;;;;;5070512;28;20044;-64
2023/07/09 00:35:18;;;;;;;13.90;8.30;;;25.20;66.00;;;;;;5052253;28;20093;-64
2023/07/09 00:37:45;;;;;;;11.90;7.97;;;25.20;66.10;;;;;;5052731;28;20341;-64
2023/07/09 00:40:18;;;;;;;13.07;7.93;;;25.20;66.10;;;;;;5071007;28;20029;-64
2023/07/09 00:42:46;;;;;;;11.52;7.30;;;25.10;66.20;;;;;;5068723;28;20091;-64
2023/07/09 00:45:26;;;;;;;12.93;7.88;;;25.10;66.20;;;;;;5068798;28;20028;-64
2023/07/09 00:47:54;;;;;;;12.43;7.65;;;25.10;66.30;;;;;;5068902;28;20035;-64
2023/07/09 00:50:29;;;;;;;12.68;7.85;;;25.10;66.30;;;;;;5070775;28;20409;-64
2023/07/09 00:52:59;;;;;;;12.10;8.30;;;25.10;66.30;;;;;;5052223;28;20419;-64
2023/07/09 00:55:31;;;;;;;12.07;8.65;;;25.00;66.30;;;;;;5053129;28;20032;-64
2023/07/09 00:58:01;;;;;;;12.75;8.80;;;25.00;66.40;;;;;;5069613;28;20117;-64
2023/07/09 01:00:47;;;;;;;10.93;8.05;;;25.00;66.50;;;;;;5068901;28;20437;-64
2023/07/09 01:03:21;;;;;;;12.10;7.95;;;25.00;66.60;;;;;;5050977;28;20135;-64
2023/07/09 01:05:51;;;;;;;14.93;8.73;;;25.00;66.80;;;;;;5047809;28;20124;-64
2023/07/09 01:08:19;;;;;;;13.25;7.65;;;25.00;66.90;;;;;;5071358;28;20021;-64
2023/07/09 01:10:47;;;;;;;12.65;8.35;;;24.90;66.80;;;;;;5051864;28;20024;-64
2023/07/09 01:13:13;;;;;;;12.95;8.98;;;24.90;66.90;;;;;;5053485;28;20330;-64
2023/07/09 01:15:39;;;;;;;13.00;8.35;;;24.90;67.00;;;;;;5050702;28;20024;-64
2023/07/09 01:18:05;;;;;;;15.10;8.70;;;24.90;67.10;;;;;;5069831;28;20029;-64
2023/07/09 01:20:31;;;;;;;12.20;8.23;;;24.90;67.20;;;;;;5054135;28;20096;-64
2023/07/09 01:23:00;;;;;;;12.50;9.25;;;24.90;67.30;;;;;;5069663;28;20115;-64
2023/07/09 01:25:28;;;;;;;13.30;8.80;;;24.90;67.40;;;;;;5051625;28;20103;-64
2023/07/09 01:27:54;;;;;;;14.25;7.93;;;24.90;67.50;;;;;;5069588;28;20464;-64
2023/07/09 01:30:22;;;;;;;11.90;8.50;;;24.90;67.60;;;;;;5053378;28;20077;-64
2023/07/09 01:32:55;;;;;;;11.95;8.23;;;24.80;67.60;;;;;;5069124;28;20462;-64
2023/07/09 01:35:21;;;;;;;13.07;8.88;;;24.90;67.80;;;;;;5050084;28;20024;-64
2023/07/09 01:37:48;;;;;;;12.40;7.90;;;24.80;67.70;;;;;;5070045;28;20039;-64
2023/07/09 01:40:17;;;;;;;12.30;8.48;;;24.80;67.90;;;;;;5068566;28;20636;-64
2023/07/09 01:42:43;;;;;;;12.60;8.52;;;24.80;67.90;;;;;;5049065;28;20040;-64
2023/07/09 01:45:10;;;;;;;12.88;9.27;;;24.70;67.90;;;;;;5052339;28;20137;-64
2023/07/09 01:47:37;;;;;;;11.10;8.07;;;24.70;68.00;;;;;;5053262;28;20099;-64
2023/07/09 01:50:04;;;;;;;13.90;8.50;;;24.70;68.10;;;;;;5069146;28;20039;-64
2023/07/09 01:52:32;;;;;;;14.43;9.35;;;24.70;68.20;;;;;;5069391;28;20059;-64
2023/07/09 01:54:58;;;;;;;12.80;8.75;;;24.70;68.20;;;;;;5052392;28;20020;-64
2023/07/09 01:57:32;;;;;;;13.45;8.45;;;24.70;68.30;;;;;;5050287;28;20112;-64
2023/07/09 02:00:01;;;;;;;13.73;8.25;;;24.70;68.30;;;;;;5052548;28;20410;-64
2023/07/09 02:02:27;;;;;;;14.38;9.30;;;24.60;68.30;;;;;;5069901;28;20020;-64
2023/07/09 02:04:56;;;;;;;12.48;8.57;;;24.60;68.40;;;;;;5068132;28;20143;-64
2023/07/09 02:07:23;;;;;;;13.35;8.43;;;24.60;68.50;;;;;;5066515;28;20078;-64
2023/07/09 02:09:51;;;;;;;11.43;8.15;;;24.60;68.50;;;;;;5049107;28;20017;-64
2023/07/09 02:12:18;;;;;;;12.32;8.25;;;24.60;68.60;;;;;;5051452;28;20025;-64
2023/07/09 02:14:45;;;;;;;12.05;8.23;;;24.50;68.60;;;;;;5051930;28;20032;-64
2023/07/09 02:17:12;;;;;;;13.07;8.05;;;24.50;68.60;;;;;;5068657;28;20034;-64
2023/07/09 02:19:38;;;;;;;12.73;8.65;;;24.50;68.70;;;;;;5069797;28;20313;-64
2023/07/09 02:22:05;;;;;;;12.77;8.50;;;24.50;68.80;;;;;;5050923;28;20124;-64
2023/07/09 02:24:31;;;;;;;12.00;7.75;;;24.50;68.90;;;;;;5052594;28;20032;-64
2023/07/09 02:26:59;;;;;;;13.70;8.43;;;24.40;68.90;;;;;;5067222;28;20021;-64
2023/07/09 02:29:25;;;;;;;12.73;8.32;;;24.40;69.00;;;;;;5067385;28;20349;-64
2023/07/09 02:31:54;;;;;;;12.25;8.73;;;24.40;69.00;;;;;;5070412;28;20028;-64
2023/07/09 02:34:19;;;;;;;13.50;8.35;;;24.40;69.10;;;;;;5071291;28;20052;-64
2023/07/09 02:36:46;;;;;;;12.88;8.15;;;24.30;69.20;;;;;;5049266;28;20472;-64
2023/07/09 02:39:13;;;;;;;12.93;8.05;;;24.30;69.20;;;;;;5063159;28;20095;-64
2023/07/09 02:41:42;;;;;;;11.77;8.48;;;24.30;69.30;;;;;;5043832;28;20052;-64
2023/07/09 02:44:08;;;;;;;13.18;9.13;;;24.30;69.40;;;;;;5060521;28;20463;-64
2023/07/09 02:46:34;;;;;;;12.27;8.48;;;24.20;69.40;;;;;;5057092;28;20027;-64
2023/07/09 02:49:04;;;;;;;16.45;8.52;;;24.20;69.40;;;;;;5051625;28;20043;-64
2023/07/09 02:51:30;;;;;;;14.35;9.13;;;24.20;69.60;;;;;;5026168;28;20342;-64
2023/07/09 02:53:58;;;;;;;11.63;8.18;;;24.20;69.60;;;;;;5059338;28;20090;-64
2023/07/09 02:56:24;;;;;;;11.70;7.55;;;24.10;69.60;;;;;;5036793;28;20035;-64
2023/07/09 02:58:50;;;;;;;11.80;7.80;;;24.10;69.60;;;;;;5044111;28;20374;-66
2023/07/09 03:01:17;;;;;;;12.63;8.23;;;24.10;69.60;;;;;;5051956;28;20067;-64
2023/07/09 03:03:43;;;;;;;13.15;8.52;;;24.10;69.80;;;;;;5037403;28;20102;-64
2023/07/09 03:06:09;;;;;;;12.93;8.25;;;24.10;69.80;;;;;;5055174;28;20036;-64
2023/07/09 03:08:35;;;;;;;15.07;8.70;;;24.10;69.90;;;;;;5025407;28;20447;-64
2023/07/09 03:11:12;;;;;;;12.60;8.15;;;24.00;69.90;;;;;;5023195;28;20029;-64
2023/07/09 03:13:38;;;;;;;14.95;8.40;;;24.00;70.00;;;;;;5039484;28;20391;-64
2023/07/09 03:16:05;;;;;;;14.60;8.15;;;24.00;70.00;;;;;;5035812;28;20120;-64
2023/07/09 03:18:31;;;;;;;12.77;8.30;;;24.00;70.10;;;;;;5037087;28;20035;-64
2023/07/09 03:20:58;;;;;;;13.15;7.93;;;23.90;70.10;;;;;;5058473;28;20118;-64
2023/07/09 03:23:24;;;;;;;14.63;8.57;;;23.90;70.10;;;;;;5055001;28;20365;-65
2023/07/09 03:25:49;;;;;;;12.45;8.15;;;23.90;70.10;;;;;;5056000;28;20349;-64
2023/07/09 03:28:15;;;;;;;13.55;8.40;;;23.90;70.20;;;;;;5054445;28;20025;-64
2023/07/09 03:30:44;;;;;;;14.50;8.07;;;23.90;70.20;;;;;;5071207;28;20036;-64
2023/07/09 03:33:11;;;;;;;13.70;8.30;;;23.90;70.20;;;;;;5035962;28;20036;-64
2023/07/09 03:35:38;;;;;;;12.75;8.80;;;23.90;70.30;;;;;;5073561;28;20453;-64
2023/07/09 03:38:05;;;;;;;12.13;8.25;;;23.80;70.20;;;;;;5072618;28;20500;-64
2023/07/09 03:40:31;;;;;;;13.05;8.07;;;23.80;70.20;;;;;;5073738;28;20036;-64
2023/07/09 03:42:56;;;;;;;13.43;8.27;;;23.80;70.30;;;;;;5075911;28;20036;-64
2023/07/09 03:45:22;;;;;;;13.07;8.40;;;23.80;70.30;;;;;;5059556;28;20042;-64
2023/07/09 03:47:48;;;;;;;12.45;8.07;;;23.80;70.40;;;;;;5058880;28;20036;-64
2023/07/09 03:50:14;;;;;;;13.45;8.63;;;23.80;70.40;;;;;;5073390;28;20070;-64
2023/07/09 03:52:40;;;;;;;12.95;8.60;;;23.80;70.40;;;;;;5075012;28;20039;-64
2023/07/09 03:55:07;;;;;;;12.95;8.23;;;23.70;70.40;;;;;;5060028;28;20024;-64
2023/07/09 03:57:34;;;;;;;12.07;8.05;;;23.70;70.40;;;;;;5075845;28;20042;-64
2023/07/09 04:00:00;;;;;;;13.73;8.57;;;23.70;70.50;;;;;;5077477;28;20383;-64
2023/07/09 04:02:26;;;;;;;12.65;8.23;;;23.70;70.50;;;;;;5052361;28;20111;-64
2023/07/09 04:04:52;;;;;;;14.40;8.23;;;23.80;70.60;;;;;;5059160;28;20418;-64
2023/07/09 04:07:17;;;;;;;14.13;9.02;;;23.80;70.50;;;;;;5077092;28;20037;-64
2023/07/09 04:09:43;;;;;;;14.07;8.90;;;23.80;70.50;;;;;;5075952;28;20352;-64
2023/07/09 04:12:09;;;;;;;13.73;9.32;;;23.80;70.50;;;;;;5071729;28;20145;-64
2023/07/09 04:14:35;;;;;;;15.32;9.57;;;23.80;70.40;;;;;;5075447;28;20108;-64
2023/07/09 04:17:01;;;;;;;12.68;8.75;;;23.80;70.50;;;;;;5076579;28;20036;-63
2023/07/09 04:19:27;;;;;;;15.60;9.20;;;23.80;70.50;;;;;;5058003;28;20089;-63
2023/07/09 04:21:53;;;;;;;13.38;8.98;;;23.80;70.50;;;;;;5073405;28;20024;-63
2023/07/09 04:24:19;;;;;;;12.95;9.70;;;23.80;70.70;;;;;;5073836;28;20583;-63
2023/07/09 04:26:46;;;;;;;11.48;8.45;;;23.80;70.40;;;;;;5071021;28;20028;-63
2023/07/09 04:29:12;;;;;;;14.88;9.57;;;23.90;70.40;;;;;;5072585;28;20039;-63
2023/07/09 04:31:40;;;;;;;14.23;9.27;;;23.90;70.40;;;;;;5057139;28;20021;-64
2023/07/09 04:34:06;;;;;;;13.68;9.20;;;23.90;70.40;;;;;;5052338;28;20039;-63
2023/07/09 04:36:32;;;;;;;12.23;9.35;;;23.90;70.50;;;;;;5070808;28;20028;-63
2023/07/09 04:38:58;;;;;;;13.00;9.40;;;23.90;70.60;;;;;;5054316;28;20358;-64
2023/07/09 04:41:24;;;;;;;14.48;8.90;;;23.90;70.60;;;;;;5044607;28;20025;-64
2023/07/09 04:43:50;;;;;;;13.40;9.40;;;23.90;70.60;;;;;;5074667;28;20119;-64
2023/07/09 04:46:16;;;;;;;15.20;9.88;;;23.90;70.60;;;;;;5076705;28;20052;-64
2023/07/09 04:48:41;;;;;;;13.52;9.25;;;23.90;70.50;;;;;;5076187;28;20040;-64
2023/07/09 04:51:08;;;;;;;14.20;9.35;;;24.00;70.60;;;;;;5058232;28;20078;-64
2023/07/09 04:53:34;;;;;;;13.13;9.68;;;24.00;70.70;;;;;;5074840;28;20103;-64
2023/07/09 04:56:02;;;;;;;14.15;10.13;;;24.00;70.70;;;;;;5076221;28;20128;-64
2023/07/09 04:58:29;;;;;;;13.75;8.95;;;24.00;70.60;;;;;;5076151;28;20039;-64
2023/07/09 05:00:58;;;;;;;14.30;9.32;;;24.10;70.70;;;;;;5075990;28;20032;-64
2023/07/09 05:03:24;;;;;;;14.73;9.32;;;24.10;70.80;;;;;;5075384;28;20130;-64
2023/07/09 05:05:50;;;;;;;13.50;9.40;;;24.10;70.80;;;;;;5057439;28;20041;-64
2023/07/09 05:08:16;;;;;;;13.30;9.25;;;24.10;70.90;;;;;;5076589;28;20028;-64
2023/07/09 05:10:49;;;;;;;15.05;10.15;;;24.20;70.90;;;;;;5058410;28;20052;-64
2023/07/09 05:13:15;;;;;;;14.20;10.55;;;24.20;70.70;;;;;;5072846;28;20027;-64
2023/07/09 05:15:46;;;;;;;13.07;10.25;;;24.20;70.40;;;;;;5057330;28;20044;-64
2023/07/09 05:18:13;;;;;;;16.67;9.52;;;24.30;70.20;;;;;;5075657;28;20064;-64
2023/07/09 05:20:40;;;;;;;13.82;9.50;;;24.40;70.30;;;;;;5074616;28;20020;-64
2023/07/09 05:23:06;;;;;;;13.70;9.60;;;24.40;70.30;;;;;;5074412;28;20033;-64
2023/07/09 05:25:32;;;;;;;13.88;9.73;;;24.50;70.20;;;;;;5073573;28;20445;-64
2023/07/09 05:27:57;;;;;;;13.95;9.45;;;24.50;70.00;;;;;;5074409;28;20029;-64
2023/07/09 05:30:23;;;;;;;16.33;10.23;;;24.60;70.00;;;;;;5056769;28;20032;-64
2023/07/09 05:32:49;;;;;;;14.52;9.80;;;24.70;69.90;;;;;;5074735;28;20405;-64
2023/07/09 05:35:15;;;;;;;14.15;9.65;;;24.70;69.60;;;;;;5071023;28;20434;-64
2023/07/09 05:37:41;;;;;;;15.50;10.25;;;24.80;69.40;;;;;;5073024;28;20410;-64
2023/07/09 05:40:08;;;;;;;13.80;9.73;;;24.90;69.20;;;;;;5073213;28;20028;-64
2023/07/09 05:42:34;;;;;;;20.15;10.43;;;25.00;69.00;;;;;;5072157;28;20035;-63
2023/07/09 05:45:00;;;;;;;19.60;10.52;;;25.10;68.80;;;;;;5070836;28;20028;-64
2023/07/09 05:47:26;;;;;;;14.20;9.30;;;25.20;68.50;;;;;;5056983;28;20035;-64
2023/07/09 05:49:52;;;;;;;15.13;10.25;;;25.20;68.40;;;;;;5052295;28;20461;-63
2023/07/09 05:52:21;;;;;;;15.35;9.98;;;25.30;68.40;;;;;;5057254;28;20035;-64
2023/07/09 05:54:49;;;;;;;14.50;9.98;;;25.40;68.30;;;;;;5069372;28;20108;-64
2023/07/09 05:57:15;;;;;;;15.10;10.55;;;25.50;68.10;;;;;;5074537;28;20051;-64
2023/07/09 05:59:41;;;;;;;14.40;10.32;;;25.50;67.80;;;;;;5074713;28;20036;-64
2023/07/09 06:02:11;;;;;;;15.10;10.10;;;25.60;67.70;;;;;;5070940;28;20050;-64
2023/07/09 06:04:37;;;;;;;12.93;9.88;;;25.70;67.90;;;;;;5073967;28;20021;-64
2023/07/09 06:07:03;;;;;;;14.95;9.05;;;25.70;67.80;;;;;;5054408;28;20368;-64
2023/07/09 06:09:30;;;;;;;13.77;9.18;;;25.80;67.80;;;;;;5057112;28;20031;-64
2023/07/09 06:11:56;;;;;;;14.13;9.60;;;25.80;67.50;;;;;;5057061;28;20025;-64
2023/07/09 06:14:21;;;;;;;12.93;9.10;;;25.90;67.40;;;;;;5073508;28;20107;-64
2023/07/09 06:16:47;;;;;;;14.63;9.77;;;26.00;67.30;;;;;;5055940;28;20099;-64
2023/07/09 06:19:13;;;;;;;13.85;9.27;;;26.10;67.10;;;;;;5074870;28;20361;-64
2023/07/09 06:21:40;;;;;;;14.23;9.00;;;26.20;66.90;;;;;;5056743;28;20040;-64
2023/07/09 06:24:07;;;;;;;13.45;9.57;;;26.20;66.90;;;;;;5039780;28;20020;-64
2023/07/09 06:26:33;;;;;;;15.00;9.88;;;26.30;66.80;;;;;;5074732;28;20025;-65
2023/07/09 06:28:58;;;;;;;13.77;9.80;;;26.40;66.40;;;;;;5040708;28;20468;-64
2023/07/09 06:31:24;;;;;;;13.95;9.60;;;26.40;66.30;;;;;;5055281;28;20024;-64
2023/07/09 06:33:50;;;;;;;12.20;8.88;;;26.50;66.10;;;;;;5051646;28;20438;-64
2023/07/09 06:36:18;;;;;;;14.48;9.10;;;26.60;65.90;;;;;;5071279;28;20028;-64
2023/07/09 06:38:44;;;;;;;14.98;9.15;;;26.70;65.30;;;;;;5073335;28;20027;-64
2023/07/09 06:41:10;;;;;;;12.73;8.57;;;26.80;64.60;;;;;;5055857;28;20031;-64
2023/07/09 06:43:39;;;;;;;14.40;8.48;;;26.90;64.70;;;;;;5055203;28;20534;-64
2023/07/09 06:46:06;;;;;;;13.60;9.80;;;27.00;64.50;;;;;;5050614;28;20374;-64
2023/07/09 06:48:32;;;;;;;13.13;9.02;;;27.10;64.50;;;;;;5051793;28;20093;-64
2023/07/09 06:50:59;;;;;;;14.98;9.43;;;27.30;64.20;;;;;;5066227;28;20362;-64
2023/07/09 06:53:27;;;;;;;11.43;8.20;;;27.30;63.80;;;;;;5050472;28;20038;-64
2023/07/09 06:55:55;;;;;;;12.70;8.25;;;27.40;63.70;;;;;;5066215;28;20028;-64
2023/07/09 06:58:27;;;;;;;15.13;8.50;;;27.50;63.60;;;;;;5032402;28;20038;-64
2023/07/09 07:00:54;;;;;;;12.43;8.35;;;27.70;63.30;;;;;;5049944;28;20025;-65
2023/07/09 07:03:20;;;;;;;12.23;8.38;;;27.80;63.20;;;;;;5064887;28;20083;-64
2023/07/09 07:05:48;;;;;;;11.38;7.75;;;27.90;63.00;;;;;;5050487;28;20039;-64
2023/07/09 07:08:17;;;;;;;13.18;8.50;;;28.00;62.90;;;;;;5066665;28;20040;-64
2023/07/09 07:10:45;;;;;;;15.77;8.40;;;28.10;62.70;;;;;;5052440;28;20111;-64
2023/07/09 07:13:11;;;;;;;10.45;7.85;;;28.30;62.60;;;;;;5068575;28;20082;-64
2023/07/09 07:15:37;;;;;;;16.88;7.72;;;28.40;62.30;;;;;;5072315;28;20032;-64
2023/07/09 07:18:03;;;;;;;11.82;8.40;;;28.50;62.10;;;;;;5054716;28;20067;-64
2023/07/09 07:20:30;;;;;;;13.43;8.40;;;28.60;61.70;;;;;;5072789;28;20052;-64
2023/07/09 07:22:56;;;;;;;12.88;8.10;;;28.70;61.80;;;;;;5071328;28;20084;-64
2023/07/09 07:25:22;;;;;;;11.90;7.90;;;28.90;61.40;;;;;;5073138;28;20041;-64
2023/07/09 07:27:48;;;;;;;11.98;7.90;;;29.10;61.00;;;;;;5052205;28;20028;-64
2023/07/09 07:30:13;;;;;;;12.63;7.95;;;29.20;60.80;;;;;;5054200;28;20021;-67
2023/07/09 07:32:44;;;;;;;10.65;7.60;;;29.30;60.70;;;;;;5052624;28;20449;-65
2023/07/09 07:35:10;;;;;;;12.15;7.93;;;29.40;60.30;;;;;;5070516;28;20438;-65
2023/07/09 07:37:36;;;;;;;11.52;8.10;;;29.60;60.00;;;;;;5053277;28;20021;-65
2023/07/09 07:40:04;;;;;;;12.10;7.40;;;29.70;59.90;;;;;;5071162;28;20017;-65
2023/07/09 07:42:30;;;;;;;11.52;7.88;;;29.80;59.90;;;;;;5071027;28;20036;-65
2023/07/09 07:44:56;;;;;;;11.18;7.43;;;29.90;59.90;;;;;;5070950;28;20024;-65
2023/07/09 07:47:22;;;;;;;14.55;8.40;;;30.00;59.90;;;;;;5070393;28;20036;-65
2023/07/09 07:49:48;;;;;;;14.85;8.07;;;30.10;59.70;;;;;;5070148;28;20024;-69
2023/07/09 07:52:13;;;;;;;12.02;7.88;;;30.30;59.50;;;;;;5055675;28;20034;-65
2023/07/09 07:54:39;;;;;;;12.35;7.68;;;30.30;59.10;;;;;;5072656;28;20062;-65
2023/07/09 07:57:05;;;;;;;10.93;7.10;;;30.40;58.70;;;;;;5072286;28;20032;-65
2023/07/09 07:59:34;;;;;;;11.63;7.68;;;30.60;58.30;;;;;;5053223;28;20318;-65
2023/07/09 08:02:01;;;;;;;11.30;8.05;;;30.70;58.00;;;;;;5069606;28;20034;-65
2023/07/09 08:04:26;;;;;;;12.52;7.40;;;30.80;57.90;;;;;;5053828;28;20113;-65
2023/07/09 08:06:53;;;;;;;11.25;7.40;;;30.80;57.60;;;;;;5071250;28;21438;-65
2023/07/09 08:09:19;;;;;;;12.85;8.18;;;31.00;57.30;;;;;;5069835;28;20082;-65
2023/07/09 08:11:44;;;;;;;10.80;7.85;;;31.10;57.20;;;;;;5054846;28;20068;-64
2023/07/09 08:14:11;;;;;;;12.00;7.82;;;31.10;57.00;;;;;;5051981;28;20028;-65
2023/07/09 08:16:37;;;;;;;11.57;7.65;;;31.20;56.90;;;;;;5054227;28;20082;-64
2023/07/09 08:19:03;;;;;;;12.23;8.07;;;31.30;56.90;;;;;;5053327;28;20028;-64
2023/07/09 08:21:29;;;;;;;11.90;7.03;;;31.40;56.80;;;;;;5064567;28;20024;-64
2023/07/09 08:23:54;;;;;;;12.95;7.60;;;31.50;56.60;;;;;;5052888;28;20028;-64
2023/07/09 08:26:20;;;;;;;12.00;7.43;;;31.50;56.50;;;;;;5049670;28;20029;-64
2023/07/09 08:28:46;;;;;;;11.00;7.60;;;31.60;57.20;;;;;;5068454;28;20020;-65
2023/07/09 08:31:12;;;;;;;11.15;7.03;;;31.70;56.20;;;;;;5069590;28;20081;-65
2023/07/09 08:33:39;;;;;;;10.50;6.07;;;31.70;55.70;;;;;;5071147;28;20041;-64
2023/07/09 08:36:05;;;;;;;10.98;6.85;;;31.90;55.40;;;;;;5069283;28;20029;-64
2023/07/09 08:38:31;;;;;;;10.15;6.30;;;32.00;55.40;;;;;;5070843;28;20037;-64
2023/07/09 08:41:07;;;;;;;10.15;6.10;;;32.10;55.10;;;;;;5070282;28;20029;-65
2023/07/09 08:44:07;;;;;;;11.25;6.53;;;32.20;54.90;;;;;;5052247;28;20074;-64
2023/07/09 08:46:39;;;;;;;12.25;6.38;;;32.30;54.30;;;;;;5069019;28;20020;-64
2023/07/09 08:49:15;;;;;;;9.77;6.03;;;32.40;53.90;;;;;;5051374;28;20024;-64
2023/07/09 08:51:43;;;;;;;9.73;5.53;;;32.40;53.20;;;;;;5050059;28;20024;-64
2023/07/09 08:54:33;;;;;;;10.63;5.57;;;32.50;53.20;;;;;;5069189;28;20020;-65
2023/07/09 08:57:11;;;;;;;13.85;6.30;;;32.60;52.90;;;;;;5071224;28;20024;-65
2023/07/09 08:59:37;;;;;;;11.35;6.10;;;32.60;52.90;;;;;;5049818;28;20028;-65
2023/07/09 09:02:05;;;;;;;11.13;6.88;;;32.70;52.90;;;;;;5050050;28;20029;-65
2023/07/09 09:04:37;;;;;;;11.30;5.75;;;32.80;52.70;;;;;;5053510;28;20048;-65
2023/07/09 09:07:18;;;;;;;9.07;5.63;;;32.80;52.50;;;;;;5051820;28;20101;-65
2023/07/09 09:09:55;;;;;;;10.77;6.28;;;32.90;52.20;;;;;;5068919;28;20085;-64
2023/07/09 09:12:28;;;;;;;10.10;6.32;;;33.00;52.30;;;;;;5069683;28;20039;-64
2023/07/09 09:15:15;;;;;;;10.65;5.70;;;33.10;52.10;;;;;;5052986;28;20033;-65
2023/07/09 09:17:42;;;;;;;9.60;6.32;;;33.10;51.90;;;;;;5049699;28;20052;-65
2023/07/09 09:20:17;;;;;;;9.18;6.05;;;33.20;51.40;;;;;;5068024;28;20474;-65
2023/07/09 09:23:05;;;;;;;11.32;5.75;;;33.30;51.30;;;;;;5051046;28;20036;-66
2023/07/09 09:25:33;;;;;;;8.93;6.68;;;33.40;51.30;;;;;;5049284;28;20033;-64
2023/07/09 09:28:02;;;;;;;13.93;5.57;;;33.50;50.80;;;;;;5050341;28;20019;-64
2023/07/09 09:30:29;;;;;;;9.25;5.43;;;33.50;50.30;;;;;;5071500;28;20103;-64
2023/07/09 09:32:57;;;;;;;9.90;6.00;;;33.60;50.40;;;;;;5070565;28;20062;-64
2023/07/09 09:35:33;;;;;;;9.65;5.95;;;33.70;50.70;;;;;;5051110;28;20369;-64
2023/07/09 09:37:59;;;;;;;10.45;6.20;;;33.80;50.20;;;;;;5027351;28;20029;-65
2023/07/09 09:40:27;;;;;;;10.38;5.63;;;33.90;50.00;;;;;;5049997;28;20036;-64
2023/07/09 09:42:56;;;;;;;9.75;5.88;;;33.90;49.40;;;;;;5070434;28;20055;-64
2023/07/09 09:45:37;;;;;;;10.55;5.40;;;33.90;49.70;;;;;;5052208;28;20036;-64
2023/07/09 09:48:13;;;;;;;9.65;5.63;;;34.00;49.70;;;;;;5069435;28;20032;-64
2023/07/09 09:50:41;;;;;;;11.07;6.05;;;34.00;49.50;;;;;;5069579;28;20024;-64
2023/07/09 09:53:08;;;;;;;8.73;5.18;;;34.10;48.90;;;;;;5033432;28;20035;-65
2023/07/09 09:55:34;;;;;;;8.00;5.05;;;34.10;48.30;;;;;;5070179;28;20035;-64
2023/07/09 09:58:02;;;;;;;11.02;5.60;;;34.10;47.80;;;;;;5070332;28;20021;-65
2023/07/09 10:00:33;;;;;;;8.60;4.93;;;34.20;47.60;;;;;;5049898;28;20071;-64
2023/07/09 10:03:01;;;;;;;8.13;5.13;;;34.20;47.90;;;;;;5033825;28;20024;-65
2023/07/09 10:05:38;;;;;;;9.45;5.45;;;34.20;47.60;;;;;;5067149;28;20066;-65
2023/07/09 10:08:09;;;;;;;11.85;5.35;;;34.30;47.80;;;;;;5068488;28;20044;-65
2023/07/09 10:10:35;;;;;;;8.63;5.25;;;34.40;47.80;;;;;;5066003;28;20027;-66
2023/07/09 10:13:04;;;;;;;10.20;5.47;;;34.40;47.50;;;;;;5042767;28;20512;-66
2023/07/09 10:15:29;;;;;;;8.85;5.13;;;34.50;47.40;;;;;;5052068;28;20044;-65
2023/07/09 10:18:40;;;;;;;9.60;5.82;;;34.50;47.30;;;;;;5051593;28;20024;-65
2023/07/09 10:21:15;;;;;;;8.65;5.07;;;34.60;47.30;;;;;;4993247;28;20030;-64
2023/07/09 10:23:48;;;;;;;9.15;5.60;;;34.70;47.30;;;;;;5063741;28;20040;-67
2023/07/09 10:26:24;;;;;;;8.73;5.13;;;34.70;47.00;;;;;;5035540;28;20032;-64
2023/07/09 10:29:03;;;;;;;9.73;4.88;;;34.80;46.70;;;;;;5031344;28;20021;-64
2023/07/09 10:31:39;;;;;;;8.50;5.03;;;34.90;46.40;;;;;;5031664;28;20039;-65
2023/07/09 10:34:16;;;;;;;7.75;4.78;;;35.00;46.90;;;;;;5066668;28;20441;-64
2023/07/09 10:37:06;;;;;;;8.88;4.80;;;35.10;46.70;;;;;;5068061;28;20059;-64
2023/07/09 10:39:41;;;;;;;8.68;4.55;;;35.10;45.80;;;;;;5050011;28;20025;-64
2023/07/09 10:42:20;;;;;;;7.75;4.18;;;35.10;45.70;;;;;;5050859;28;20040;-64
2023/07/09 10:44:53;;;;;;;7.45;4.25;;;35.20;45.40;;;;;;5065441;28;20566;-65
2023/07/09 10:47:41;;;;;;;8.15;4.57;;;35.20;45.10;;;;;;5066684;28;20020;-64
2023/07/09 10:50:30;;;;;;;7.38;3.88;;;35.30;44.70;;;;;;5048333;28;20024;-65
2023/07/09 10:53:13;;;;;;;8.77;3.95;;;35.40;44.20;;;;;;5067019;28;20064;-64
2023/07/09 10:55:43;;;;;;;9.50;4.38;;;35.40;43.80;;;;;;5066913;28;20094;-65
2023/07/09 10:58:22;;;;;;;;;;;35.40;44.00;;;;;;5056296;28;20108;-64
2023/07/09 11:00:48;;;;;;;7.10;4.10;;;35.40;44.30;;;;;;5039632;28;19912;-64
2023/07/09 11:03:19;;;;;;;8.38;4.60;;;35.40;44.30;;;;;;5072138;28;20024;-65
2023/07/09 11:05:46;;;;;;;9.70;4.75;;;35.40;44.50;;;;;;5050056;28;20513;-64
2023/07/09 11:08:19;;;;;;;8.38;4.35;;;35.50;44.20;;;;;;5047248;28;20124;-64
2023/07/09 11:11:02;;;;;;;8.68;4.30;;;35.50;44.00;;;;;;5053091;28;20020;-64
2023/07/09 11:13:37;;;;;;;10.15;4.45;;;35.50;44.10;;;;;;5072939;28;20074;-64
2023/07/09 11:16:06;;;;;;;8.45;4.70;;;35.50;43.90;;;;;;5047446;28;20394;-65
2023/07/09 11:18:35;;;;;;;7.68;4.30;;;35.50;43.90;;;;;;5068756;28;20087;-64
2023/07/09 11:21:13;;;;;;;8.50;4.63;;;35.50;44.30;;;;;;5030557;28;20033;-64
2023/07/09 11:23:54;;;;;;;7.75;4.38;;;35.50;44.60;;;;;;5065207;28;20040;-65
2023/07/09 11:26:25;;;;;;;9.57;5.07;;;35.50;44.80;;;;;;5066719;28;20118;-64
2023/07/09 11:29:14;;;;;;;7.30;4.43;;;35.50;44.70;;;;;;5071976;28;20044;-64
2023/07/09 11:31:44;;;;;;;8.57;4.90;;;35.50;44.40;;;;;;5064978;28;20112;-64
2023/07/09 11:34:13;;;;;;;9.07;4.82;;;35.50;44.60;;;;;;5070596;28;20495;-64
2023/07/09 11:37:00;;;;;;;8.98;4.88;;;35.50;44.40;;;;;;5068716;28;20117;-64
2023/07/09 11:39:32;;;;;;;8.25;4.47;;;35.40;44.00;;;;;;5064843;28;20037;-64
2023/07/09 11:41:58;;;;;;;9.77;4.32;;;35.40;44.00;;;;;;5037966;28;20464;-64
2023/07/09 11:44:30;;;;;;;10.00;4.43;;;35.30;43.50;;;;;;5070265;28;20364;-64
2023/07/09 11:47:19;;;;;;;8.80;3.97;;;35.30;43.70;;;;;;5070364;28;20361;-64
2023/07/09 11:50:11;;;;;;;6.88;4.03;;;35.20;43.90;;;;;;5067814;28;20403;-64
2023/07/09 11:52:40;;;;;;;8.35;4.30;;;35.20;44.30;;;;;;5031891;28;20089;-64
2023/07/09 11:55:36;;;;;;;8.02;4.68;;;35.10;44.40;;;;;;5066226;28;20111;-64
2023/07/09 11:58:04;;;;;;;7.78;4.50;;;35.10;44.20;;;;;;5067272;28;20032;-64
2023/07/09 12:00:49;;;;;;;10.07;5.03;;;35.00;44.10;;;;;;5065081;28;20032;-64
2023/07/09 12:03:23;;;;;;;8.50;5.10;;;34.80;44.20;;;;;;5069432;28;20060;-64
2023/07/09 12:05:59;;;;;;;9.55;5.05;;;34.60;44.50;;;;;;5066886;28;20028;-64
2023/07/09 12:08:35;;;;;;;10.02;5.18;;;34.60;45.00;;;;;;5069691;28;20045;-64
2023/07/09 12:11:01;;;;;;;9.13;4.45;;;34.50;44.90;;;;;;5067651;28;20480;-64
2023/07/09 12:13:27;;;;;;;10.85;5.57;;;34.40;44.90;;;;;;5066665;28;20025;-65
2023/07/09 12:15:53;;;;;;;9.20;5.30;;;34.30;45.60;;;;;;5067695;28;20042;-64
2023/07/09 12:18:18;;;;;;;7.95;4.45;;;34.20;45.90;;;;;;5056436;28;20028;-68
2023/07/09 12:20:53;;;;;;;8.85;4.68;;;34.20;45.60;;;;;;5068422;28;20085;-65
2023/07/09 12:23:23;;;;;;;8.98;5.03;;;34.10;45.90;;;;;;5064547;28;20028;-66
2023/07/09 12:25:50;;;;;;;9.75;5.18;;;34.00;45.70;;;;;;5050529;28;20032;-65
2023/07/09 12:28:17;;;;;;;8.52;4.80;;;34.00;45.80;;;;;;5068797;28;20033;-64
2023/07/09 12:30:51;;;;;;;6.82;4.47;;;33.90;46.30;;;;;;5067391;28;20032;-64
2023/07/09 12:33:19;;;;;;;8.60;5.03;;;33.80;46.20;;;;;;5066266;28;20190;-64
2023/07/09 12:35:46;;;;;;;8.18;4.82;;;33.80;46.10;;;;;;5036577;28;20133;-64
2023/07/09 12:38:20;;;;;;;9.40;4.97;;;33.70;46.50;;;;;;5074498;28;20040;-64
2023/07/09 12:40:48;;;;;;;9.25;4.88;;;33.60;46.30;;;;;;5075090;28;20348;-64
2023/07/09 12:43:14;;;;;;;8.82;4.95;;;33.60;46.50;;;;;;5074192;28;20056;-64
2023/07/09 12:45:40;;;;;;;9.98;5.15;;;33.50;47.00;;;;;;5069704;28;20501;-64
2023/07/09 12:48:07;;;;;;;8.80;4.93;;;33.40;47.50;;;;;;5069993;28;20040;-64